sensor_id;sensor_type;location;lat;lon;timestamp;pressure;altitude;pressure_sealevel;temperature;humidity
62632;BME280;48703;51.248;-0.546;2024-01-06T00:01:10;100357;;;5.80;100.00
62632;BME280;48703;51.248;-0.546;2024-01-06T00:04:09;100358;;;5.81;100.00
62632;BME280;48703;51.248;-0.546;2024-01-06T00:07:12;100358;;;5.80;100.00
62632;BME280;48703;51.248;-0.546;2024-01-06T00:10:14;100362;;;5.80;100.00
62632;BME280;48703;51.248;-0.546;2024-01-06T00:13:16;100367;;;5.79;100.00
62632;BME280;48703;51.248;-0.546;2024-01-06T00:16:19;100369;;;5.79;100.00
62632;BME280;48703;51.248;-0.546;2024-01-06T00:19:21;100370;;;5.79;100.00
62632;BME280;48703;51.248;-0.546;2024-01-06T00:22:24;100374;;;5.79;100.00
62632;BME280;48703;51.248;-0.546;2024-01-06T00:25:25;100378;;;5.77;100.00
62632;BME280;48703;51.248;-0.546;2024-01-06T00:28:27;100383;;;5.79;100.00
62632;BME280;48703;51.248;-0.546;2024-01-06T00:31:30;100384;;;5.78;100.00
62632;BME280;48703;51.248;-0.546;2024-01-06T00:34:32;100385;;;5.79;100.00
62632;BME280;48703;51.248;-0.546;2024-01-06T00:37:34;100389;;;5.78;100.00
62632;BME280;48703;51.248;-0.546;2024-01-06T00:40:36;100386;;;5.76;100.00
62632;BME280;48703;51.248;-0.546;2024-01-06T00:43:39;100385;;;5.78;100.00
62632;BME280;48703;51.248;-0.546;2024-01-06T00:46:42;100390;;;5.76;100.00
62632;BME280;48703;51.248;-0.546;2024-01-06T00:49:43;100391;;;5.74;100.00
62632;BME280;48703;51.248;-0.546;2024-01-06T00:52:46;100394;;;5.72;100.00
62632;BME280;48703;51.248;-0.546;2024-01-06T00:55:48;100393;;;5.71;100.00
62632;BME280;48703;51.248;-0.546;2024-01-06T00:58:50;100392;;;5.70;100.00
62632;BME280;48703;51.248;-0.546;2024-01-06T01:01:52;100395;;;5.72;100.00
62632;BME280;48703;51.248;-0.546;2024-01-06T01:04:55;100398;;;5.71;100.00
62632;BME280;48703;51.248;-0.546;2024-01-06T01:07:57;100398;;;5.72;100.00
62632;BME280;48703;51.248;-0.546;2024-01-06T01:10:59;100400;;;5.71;100.00
62632;BME280;48703;51.248;-0.546;2024-01-06T01:14:01;100407;;;5.71;100.00
62632;BME280;48703;51.248;-0.546;2024-01-06T01:17:04;100410;;;5.69;100.00
62632;BME280;48703;51.248;-0.546;2024-01-06T01:20:06;100413;;;5.68;100.00
62632;BME280;48703;51.248;-0.546;2024-01-06T01:23:08;100413;;;5.69;100.00
62632;BME280;48703;51.248;-0.546;2024-01-06T01:26:10;100416;;;5.67;100.00
62632;BME280;48703;51.248;-0.546;2024-01-06T01:29:13;100415;;;5.67;100.00
62632;BME280;48703;51.248;-0.546;2024-01-06T01:32:15;100417;;;5.67;100.00
62632;BME280;48703;51.248;-0.546;2024-01-06T01:35:17;100418;;;5.66;100.00
62632;BME280;48703;51.248;-0.546;2024-01-06T01:38:20;100417;;;5.67;100.00
62632;BME280;48703;51.248;-0.546;2024-01-06T01:41:22;100417;;;5.68;100.00
62632;BME280;48703;51.248;-0.546;2024-01-06T01:44:24;100420;;;5.64;100.00
62632;BME280;48703;51.248;-0.546;2024-01-06T01:47:28;100425;;;5.65;100.00
62632;BME280;48703;51.248;-0.546;2024-01-06T01:50:29;100427;;;5.62;100.00
62632;BME280;48703;51.248;-0.546;2024-01-06T01:53:31;100432;;;5.60;100.00
62632;BME280;48703;51.248;-0.546;2024-01-06T01:56:33;100436;;;5.61;100.00
62632;BME280;48703;51.248;-0.546;2024-01-06T01:59:36;100438;;;5.62;100.00
62632;BME280;48703;51.248;-0.546;2024-01-06T02:02:38;100440;;;5.61;100.00
62632;BME280;48703;51.248;-0.546;2024-01-06T02:05:40;100444;;;5.59;100.00
62632;BME280;48703;51.248;-0.546;2024-01-06T02:08:42;100449;;;5.61;100.00
62632;BME280;48703;51.248;-0.546;2024-01-06T02:11:44;100451;;;5.60;100.00
62632;BME280;48703;51.248;-0.546;2024-01-06T02:14:47;100455;;;5.60;100.00
62632;BME280;48703;51.248;-0.546;2024-01-06T02:17:49;100455;;;5.58;100.00
62632;BME280;48703;51.248;-0.546;2024-01-06T02:20:51;100455;;;5.60;100.00
62632;BME280;48703;51.248;-0.546;2024-01-06T02:23:54;100460;;;5.60;100.00
62632;BME280;48703;51.248;-0.546;2024-01-06T02:26:56;100465;;;5.60;100.00
62632;BME280;48703;51.248;-0.546;2024-01-06T02:29:58;100471;;;5.60;100.00
62632;BME280;48703;51.248;-0.546;2024-01-06T02:33:00;100476;;;5.59;100.00
62632;BME280;48703;51.248;-0.546;2024-01-06T02:36:03;100479;;;5.57;100.00
62632;BME280;48703;51.248;-0.546;2024-01-06T02:39:05;100480;;;5.59;100.00
62632;BME280;48703;51.248;-0.546;2024-01-06T02:42:07;100483;;;5.59;100.00
62632;BME280;48703;51.248;-0.546;2024-01-06T02:45:10;100488;;;5.61;100.00
62632;BME280;48703;51.248;-0.546;2024-01-06T02:48:12;100490;;;5.60;100.00
62632;BME280;48703;51.248;-0.546;2024-01-06T02:51:14;100492;;;5.59;100.00
62632;BME280;48703;51.248;-0.546;2024-01-06T02:54:16;100494;;;5.58;100.00
62632;BME280;48703;51.248;-0.546;2024-01-06T02:57:19;100494;;;5.57;100.00
62632;BME280;48703;51.248;-0.546;2024-01-06T03:00:21;100497;;;5.57;100.00
62632;BME280;48703;51.248;-0.546;2024-01-06T03:03:23;100497;;;5.57;100.00
62632;BME280;48703;51.248;-0.546;2024-01-06T03:06:26;100497;;;5.56;100.00
62632;BME280;48703;51.248;-0.546;2024-01-06T03:09:28;100502;;;5.57;100.00
62632;BME280;48703;51.248;-0.546;2024-01-06T03:12:30;100504;;;5.57;100.00
62632;BME280;48703;51.248;-0.546;2024-01-06T03:15:32;100506;;;5.57;100.00
62632;BME280;48703;51.248;-0.546;2024-01-06T03:18:34;100509;;;5.56;100.00
62632;BME280;48703;51.248;-0.546;2024-01-06T03:21:37;100512;;;5.56;100.00
62632;BME280;48703;51.248;-0.546;2024-01-06T03:24:39;100514;;;5.56;100.00
62632;BME280;48703;51.248;-0.546;2024-01-06T03:27:41;100516;;;5.57;100.00
62632;BME280;48703;51.248;-0.546;2024-01-06T03:30:44;100519;;;5.58;100.00
62632;BME280;48703;51.248;-0.546;2024-01-06T03:33:46;100518;;;5.58;100.00
62632;BME280;48703;51.248;-0.546;2024-01-06T03:36:48;100519;;;5.57;100.00
62632;BME280;48703;51.248;-0.546;2024-01-06T03:39:50;100522;;;5.58;100.00
62632;BME280;48703;51.248;-0.546;2024-01-06T03:42:53;100523;;;5.58;100.00
62632;BME280;48703;51.248;-0.546;2024-01-06T03:45:55;100525;;;5.58;100.00
62632;BME280;48703;51.248;-0.546;2024-01-06T03:48:57;100527;;;5.59;100.00
62632;BME280;48703;51.248;-0.546;2024-01-06T03:51:59;100531;;;5.60;100.00
62632;BME280;48703;51.248;-0.546;2024-01-06T03:55:02;100534;;;5.58;100.00
62632;BME280;48703;51.248;-0.546;2024-01-06T03:58:04;100535;;;5.59;100.00
62632;BME280;48703;51.248;-0.546;2024-01-06T04:01:06;100536;;;5.60;100.00
62632;BME280;48703;51.248;-0.546;2024-01-06T04:04:09;100538;;;5.60;100.00
62632;BME280;48703;51.248;-0.546;2024-01-06T04:07:11;100538;;;5.60;100.00
62632;BME280;48703;51.248;-0.546;2024-01-06T04:10:13;100542;;;5.58;100.00
62632;BME280;48703;51.248;-0.546;2024-01-06T04:13:15;100548;;;5.57;100.00
62632;BME280;48703;51.248;-0.546;2024-01-06T04:16:18;100551;;;5.57;100.00
62632;BME280;48703;51.248;-0.546;2024-01-06T04:19:20;100553;;;5.58;100.00
62632;BME280;48703;51.248;-0.546;2024-01-06T04:22:23;100556;;;5.56;100.00
62632;BME280;48703;51.248;-0.546;2024-01-06T04:25:24;100563;;;5.56;100.00
62632;BME280;48703;51.248;-0.546;2024-01-06T04:28:27;100562;;;5.56;100.00
62632;BME280;48703;51.248;-0.546;2024-01-06T04:31:29;100565;;;5.56;100.00
62632;BME280;48703;51.248;-0.546;2024-01-06T04:34:31;100567;;;5.57;100.00
62632;BME280;48703;51.248;-0.546;2024-01-06T04:37:33;100568;;;5.57;100.00
62632;BME280;48703;51.248;-0.546;2024-01-06T04:40:36;100572;;;5.57;100.00
62632;BME280;48703;51.248;-0.546;2024-01-06T04:43:38;100571;;;5.55;100.00
62632;BME280;48703;51.248;-0.546;2024-01-06T04:46:40;100574;;;5.53;100.00
62632;BME280;48703;51.248;-0.546;2024-01-06T04:49:43;100578;;;5.53;100.00
62632;BME280;48703;51.248;-0.546;2024-01-06T04:52:45;100581;;;5.51;100.00
62632;BME280;48703;51.248;-0.546;2024-01-06T04:55:47;100583;;;5.50;100.00
62632;BME280;48703;51.248;-0.546;2024-01-06T04:58:49;100585;;;5.47;100.00
62632;BME280;48703;51.248;-0.546;2024-01-06T05:01:51;100586;;;5.48;100.00
62632;BME280;48703;51.248;-0.546;2024-01-06T05:04:54;100585;;;5.47;100.00
62632;BME280;48703;51.248;-0.546;2024-01-06T05:07:56;100588;;;5.47;100.00
62632;BME280;48703;51.248;-0.546;2024-01-06T05:10:58;100590;;;5.48;100.00
62632;BME280;48703;51.248;-0.546;2024-01-06T05:14:00;100596;;;5.49;100.00
62632;BME280;48703;51.248;-0.546;2024-01-06T05:17:03;100601;;;5.49;100.00
62632;BME280;48703;51.248;-0.546;2024-01-06T05:20:05;100603;;;5.46;100.00
62632;BME280;48703;51.248;-0.546;2024-01-06T05:23:07;100611;;;5.47;100.00
62632;BME280;48703;51.248;-0.546;2024-01-06T05:26:10;100617;;;5.49;100.00
62632;BME280;48703;51.248;-0.546;2024-01-06T05:29:12;100622;;;5.49;100.00
62632;BME280;48703;51.248;-0.546;2024-01-06T05:32:15;100625;;;5.51;100.00
62632;BME280;48703;51.248;-0.546;2024-01-06T05:35:16;100628;;;5.53;100.00
62632;BME280;48703;51.248;-0.546;2024-01-06T05:38:19;100634;;;5.54;100.00
62632;BME280;48703;51.248;-0.546;2024-01-06T05:41:21;100639;;;5.55;100.00
62632;BME280;48703;51.248;-0.546;2024-01-06T05:44:23;100643;;;5.57;100.00
62632;BME280;48703;51.248;-0.546;2024-01-06T05:47:25;100642;;;5.58;100.00
62632;BME280;48703;51.248;-0.546;2024-01-06T05:50:28;100647;;;5.56;100.00
62632;BME280;48703;51.248;-0.546;2024-01-06T05:53:30;100652;;;5.56;100.00
62632;BME280;48703;51.248;-0.546;2024-01-06T05:56:32;100656;;;5.55;100.00
62632;BME280;48703;51.248;-0.546;2024-01-06T05:59:35;100660;;;5.55;100.00
62632;BME280;48703;51.248;-0.546;2024-01-06T06:02:37;100668;;;5.54;100.00
62632;BME280;48703;51.248;-0.546;2024-01-06T06:05:39;100673;;;5.55;100.00
62632;BME280;48703;51.248;-0.546;2024-01-06T06:08:42;100676;;;5.56;100.00
62632;BME280;48703;51.248;-0.546;2024-01-06T06:11:44;100677;;;5.57;100.00
62632;BME280;48703;51.248;-0.546;2024-01-06T06:14:46;100677;;;5.55;100.00
62632;BME280;48703;51.248;-0.546;2024-01-06T06:17:48;100678;;;5.53;100.00
62632;BME280;48703;51.248;-0.546;2024-01-06T06:20:50;100674;;;5.52;100.00
62632;BME280;48703;51.248;-0.546;2024-01-06T06:23:53;100685;;;5.49;100.00
62632;BME280;48703;51.248;-0.546;2024-01-06T06:26:55;100702;;;5.48;100.00
62632;BME280;48703;51.248;-0.546;2024-01-06T06:29:57;100706;;;5.48;100.00
62632;BME280;48703;51.248;-0.546;2024-01-06T06:32:59;100712;;;5.48;100.00
62632;BME280;48703;51.248;-0.546;2024-01-06T06:36:03;100721;;;5.49;100.00
62632;BME280;48703;51.248;-0.546;2024-01-06T06:39:04;100725;;;5.49;100.00
62632;BME280;48703;51.248;-0.546;2024-01-06T06:42:06;100729;;;5.48;100.00
62632;BME280;48703;51.248;-0.546;2024-01-06T06:45:09;100737;;;5.45;100.00
62632;BME280;48703;51.248;-0.546;2024-01-06T06:48:11;100744;;;5.43;100.00
62632;BME280;48703;51.248;-0.546;2024-01-06T06:51:13;100750;;;5.41;100.00
62632;BME280;48703;51.248;-0.546;2024-01-06T06:54:15;100756;;;5.41;100.00
62632;BME280;48703;51.248;-0.546;2024-01-06T06:57:18;100761;;;5.41;100.00
62632;BME280;48703;51.248;-0.546;2024-01-06T07:00:20;100767;;;5.40;100.00
62632;BME280;48703;51.248;-0.546;2024-01-06T07:03:22;100768;;;5.40;100.00
62632;BME280;48703;51.248;-0.546;2024-01-06T07:06:24;100772;;;5.41;100.00
62632;BME280;48703;51.248;-0.546;2024-01-06T07:09:27;100777;;;5.40;100.00
62632;BME280;48703;51.248;-0.546;2024-01-06T07:12:29;100783;;;5.37;100.00
62632;BME280;48703;51.248;-0.546;2024-01-06T07:15:31;100786;;;5.35;100.00
62632;BME280;48703;51.248;-0.546;2024-01-06T07:18:33;100790;;;5.36;100.00
62632;BME280;48703;51.248;-0.546;2024-01-06T07:21:36;100792;;;5.36;100.00
62632;BME280;48703;51.248;-0.546;2024-01-06T07:24:38;100793;;;5.32;100.00
62632;BME280;48703;51.248;-0.546;2024-01-06T07:27:40;100796;;;5.31;100.00
62632;BME280;48703;51.248;-0.546;2024-01-06T07:30:42;100801;;;5.30;100.00
62632;BME280;48703;51.248;-0.546;2024-01-06T07:33:45;100811;;;5.29;100.00
62632;BME280;48703;51.248;-0.546;2024-01-06T07:36:47;100817;;;5.27;100.00
62632;BME280;48703;51.248;-0.546;2024-01-06T07:39:49;100822;;;5.25;100.00
62632;BME280;48703;51.248;-0.546;2024-01-06T07:42:52;100825;;;5.25;100.00
62632;BME280;48703;51.248;-0.546;2024-01-06T07:45:54;100830;;;5.22;100.00
62632;BME280;48703;51.248;-0.546;2024-01-06T07:48:56;100833;;;5.21;100.00
62632;BME280;48703;51.248;-0.546;2024-01-06T07:51:58;100836;;;5.22;100.00
62632;BME280;48703;51.248;-0.546;2024-01-06T07:55:01;100837;;;5.22;100.00
62632;BME280;48703;51.248;-0.546;2024-01-06T07:58:03;100847;;;5.20;100.00
62632;BME280;48703;51.248;-0.546;2024-01-06T08:01:05;100852;;;5.19;100.00
62632;BME280;48703;51.248;-0.546;2024-01-06T08:04:07;100856;;;5.19;100.00
62632;BME280;48703;51.248;-0.546;2024-01-06T08:07:10;100857;;;5.19;100.00
62632;BME280;48703;51.248;-0.546;2024-01-06T08:10:12;100861;;;5.20;100.00
62632;BME280;48703;51.248;-0.546;2024-01-06T08:13:14;100867;;;5.20;100.00
62632;BME280;48703;51.248;-0.546;2024-01-06T08:16:17;100870;;;5.17;100.00
62632;BME280;48703;51.248;-0.546;2024-01-06T08:19:19;100875;;;5.15;100.00
62632;BME280;48703;51.248;-0.546;2024-01-06T08:22:21;100883;;;5.13;100.00
62632;BME280;48703;51.248;-0.546;2024-01-06T08:25:23;100881;;;5.13;100.00
62632;BME280;48703;51.248;-0.546;2024-01-06T08:28:25;100889;;;5.14;100.00
62632;BME280;48703;51.248;-0.546;2024-01-06T08:31:28;100899;;;5.09;100.00
62632;BME280;48703;51.248;-0.546;2024-01-06T08:34:30;100903;;;5.07;100.00
62632;BME280;48703;51.248;-0.546;2024-01-06T08:37:32;100903;;;5.04;100.00
62632;BME280;48703;51.248;-0.546;2024-01-06T08:40:35;100903;;;5.03;100.00
62632;BME280;48703;51.248;-0.546;2024-01-06T08:43:37;100910;;;5.02;100.00
62632;BME280;48703;51.248;-0.546;2024-01-06T08:46:39;100918;;;5.01;100.00
62632;BME280;48703;51.248;-0.546;2024-01-06T08:49:41;100924;;;5.01;100.00
62632;BME280;48703;51.248;-0.546;2024-01-06T08:52:44;100931;;;5.00;100.00
62632;BME280;48703;51.248;-0.546;2024-01-06T08:55:46;100935;;;5.00;100.00
62632;BME280;48703;51.248;-0.546;2024-01-06T08:58:48;100937;;;5.00;100.00
62632;BME280;48703;51.248;-0.546;2024-01-06T09:01:50;100941;;;5.02;100.00
62632;BME280;48703;51.248;-0.546;2024-01-06T09:04:53;100950;;;4.97;100.00
62632;BME280;48703;51.248;-0.546;2024-01-06T09:07:55;100955;;;4.95;100.00
62632;BME280;48703;51.248;-0.546;2024-01-06T09:10:57;100963;;;4.94;100.00
62632;BME280;48703;51.248;-0.546;2024-01-06T09:13:59;100972;;;4.94;100.00
62632;BME280;48703;51.248;-0.546;2024-01-06T09:17:02;100977;;;4.94;100.00
62632;BME280;48703;51.248;-0.546;2024-01-06T09:20:04;100984;;;4.95;100.00
62632;BME280;48703;51.248;-0.546;2024-01-06T09:23:06;100987;;;4.96;100.00
62632;BME280;48703;51.248;-0.546;2024-01-06T09:26:09;100991;;;4.98;100.00
62632;BME280;48703;51.248;-0.546;2024-01-06T09:29:11;101000;;;5.02;100.00
62632;BME280;48703;51.248;-0.546;2024-01-06T09:32:13;101006;;;5.03;100.00
62632;BME280;48703;51.248;-0.546;2024-01-06T09:35:15;101010;;;5.06;100.00
62632;BME280;48703;51.248;-0.546;2024-01-06T09:38:18;101014;;;5.07;100.00
62632;BME280;48703;51.248;-0.546;2024-01-06T09:41:20;101018;;;5.08;100.00
62632;BME280;48703;51.248;-0.546;2024-01-06T09:44:22;101020;;;5.08;100.00
62632;BME280;48703;51.248;-0.546;2024-01-06T09:47:24;101021;;;5.09;100.00
62632;BME280;48703;51.248;-0.546;2024-01-06T09:50:27;101022;;;5.12;100.00
62632;BME280;48703;51.248;-0.546;2024-01-06T09:53:33;101027;;;5.11;100.00
62632;BME280;48703;51.248;-0.546;2024-01-06T09:56:31;101029;;;5.13;100.00
62632;BME280;48703;51.248;-0.546;2024-01-06T09:59:33;101033;;;5.14;100.00
62632;BME280;48703;51.248;-0.546;2024-01-06T10:02:36;101038;;;5.13;100.00
62632;BME280;48703;51.248;-0.546;2024-01-06T10:05:38;101044;;;5.15;100.00
62632;BME280;48703;51.248;-0.546;2024-01-06T10:08:42;101048;;;5.18;100.00
62632;BME280;48703;51.248;-0.546;2024-01-06T10:11:43;101057;;;5.21;100.00
62632;BME280;48703;51.248;-0.546;2024-01-06T10:14:45;101064;;;5.24;100.00
62632;BME280;48703;51.248;-0.546;2024-01-06T10:17:47;101068;;;5.26;100.00
62632;BME280;48703;51.248;-0.546;2024-01-06T10:20:49;101065;;;5.27;100.00
62632;BME280;48703;51.248;-0.546;2024-01-06T10:23:52;101069;;;5.30;100.00
62632;BME280;48703;51.248;-0.546;2024-01-06T10:26:54;101072;;;5.31;100.00
62632;BME280;48703;51.248;-0.546;2024-01-06T10:29:57;101075;;;5.36;100.00
62632;BME280;48703;51.248;-0.546;2024-01-06T10:32:58;101074;;;5.33;100.00
62632;BME280;48703;51.248;-0.546;2024-01-06T10:36:01;101074;;;5.34;100.00
62632;BME280;48703;51.248;-0.546;2024-01-06T10:39:03;101081;;;5.37;100.00
62632;BME280;48703;51.248;-0.546;2024-01-06T10:42:06;101087;;;5.38;100.00
62632;BME280;48703;51.248;-0.546;2024-01-06T10:45:09;101091;;;5.37;100.00
62632;BME280;48703;51.248;-0.546;2024-01-06T10:48:10;101091;;;5.39;100.00
62632;BME280;48703;51.248;-0.546;2024-01-06T10:51:13;101091;;;5.41;100.00
62632;BME280;48703;51.248;-0.546;2024-01-06T10:54:14;101096;;;5.41;100.00
62632;BME280;48703;51.248;-0.546;2024-01-06T10:57:17;101097;;;5.42;100.00
62632;BME280;48703;51.248;-0.546;2024-01-06T11:00:19;101097;;;5.44;100.00
62632;BME280;48703;51.248;-0.546;2024-01-06T11:03:21;101095;;;5.46;100.00
62632;BME280;48703;51.248;-0.546;2024-01-06T11:06:24;101093;;;5.47;100.00
62632;BME280;48703;51.248;-0.546;2024-01-06T11:09:27;101094;;;5.48;100.00
62632;BME280;48703;51.248;-0.546;2024-01-06T11:12:28;101097;;;5.51;100.00
62632;BME280;48703;51.248;-0.546;2024-01-06T11:15:38;101094;;;5.52;100.00
62632;BME280;48703;51.248;-0.546;2024-01-06T11:18:33;101093;;;5.55;100.00
62632;BME280;48703;51.248;-0.546;2024-01-06T11:21:35;101093;;;5.58;100.00
62632;BME280;48703;51.248;-0.546;2024-01-06T11:24:37;101095;;;5.59;100.00
62632;BME280;48703;51.248;-0.546;2024-01-06T11:27:39;101095;;;5.58;100.00
62632;BME280;48703;51.248;-0.546;2024-01-06T11:30:42;101095;;;5.56;100.00
62632;BME280;48703;51.248;-0.546;2024-01-06T11:33:44;101097;;;5.56;100.00
62632;BME280;48703;51.248;-0.546;2024-01-06T11:36:47;101097;;;5.60;100.00
62632;BME280;48703;51.248;-0.546;2024-01-06T11:39:48;101097;;;5.62;100.00
62632;BME280;48703;51.248;-0.546;2024-01-06T11:42:56;101097;;;5.62;100.00
62632;BME280;48703;51.248;-0.546;2024-01-06T11:45:53;101102;;;5.60;100.00
62632;BME280;48703;51.248;-0.546;2024-01-06T11:48:55;101102;;;5.63;100.00
62632;BME280;48703;51.248;-0.546;2024-01-06T11:51:58;101100;;;5.66;100.00
62632;BME280;48703;51.248;-0.546;2024-01-06T11:55:00;101099;;;5.70;100.00
62632;BME280;48703;51.248;-0.546;2024-01-06T11:58:02;101102;;;5.70;100.00
62632;BME280;48703;51.248;-0.546;2024-01-06T12:01:04;101096;;;5.72;100.00
62632;BME280;48703;51.248;-0.546;2024-01-06T12:04:06;101096;;;5.71;100.00
62632;BME280;48703;51.248;-0.546;2024-01-06T12:07:09;101101;;;5.75;100.00
62632;BME280;48703;51.248;-0.546;2024-01-06T12:10:11;101101;;;5.76;100.00
62632;BME280;48703;51.248;-0.546;2024-01-06T12:13:13;101100;;;5.78;100.00
62632;BME280;48703;51.248;-0.546;2024-01-06T12:16:16;101099;;;5.76;100.00
62632;BME280;48703;51.248;-0.546;2024-01-06T12:19:18;101100;;;5.76;100.00
62632;BME280;48703;51.248;-0.546;2024-01-06T12:22:20;101097;;;5.76;100.00
62632;BME280;48703;51.248;-0.546;2024-01-06T12:25:23;101094;;;5.74;100.00
62632;BME280;48703;51.248;-0.546;2024-01-06T12:28:25;101092;;;5.78;100.00
62632;BME280;48703;51.248;-0.546;2024-01-06T12:31:27;101092;;;5.80;100.00
62632;BME280;48703;51.248;-0.546;2024-01-06T12:34:29;101088;;;5.87;100.00
62632;BME280;48703;51.248;-0.546;2024-01-06T12:37:31;101088;;;5.91;100.00
62632;BME280;48703;51.248;-0.546;2024-01-06T12:40:34;101086;;;5.93;100.00
62632;BME280;48703;51.248;-0.546;2024-01-06T12:43:36;101087;;;5.95;100.00
62632;BME280;48703;51.248;-0.546;2024-01-06T12:46:38;101086;;;5.96;100.00
62632;BME280;48703;51.248;-0.546;2024-01-06T12:49:40;101083;;;5.95;100.00
62632;BME280;48703;51.248;-0.546;2024-01-06T12:52:43;101084;;;6.00;100.00
62632;BME280;48703;51.248;-0.546;2024-01-06T12:55:45;101088;;;6.05;100.00
62632;BME280;48703;51.248;-0.546;2024-01-06T12:58:48;101087;;;6.07;100.00
62632;BME280;48703;51.248;-0.546;2024-01-06T13:01:49;101090;;;6.12;100.00
62632;BME280;48703;51.248;-0.546;2024-01-06T13:04:52;101091;;;6.15;100.00
62632;BME280;48703;51.248;-0.546;2024-01-06T13:07:54;101089;;;6.13;100.00
62632;BME280;48703;51.248;-0.546;2024-01-06T13:10:56;101091;;;6.19;100.00
62632;BME280;48703;51.248;-0.546;2024-01-06T13:13:59;101095;;;6.22;100.00
62632;BME280;48703;51.248;-0.546;2024-01-06T13:17:01;101096;;;6.28;100.00
62632;BME280;48703;51.248;-0.546;2024-01-06T13:20:04;101094;;;6.34;100.00
62632;BME280;48703;51.248;-0.546;2024-01-06T13:23:05;101095;;;6.37;100.00
62632;BME280;48703;51.248;-0.546;2024-01-06T13:26:08;101099;;;6.38;100.00
62632;BME280;48703;51.248;-0.546;2024-01-06T13:29:10;101102;;;6.33;100.00
62632;BME280;48703;51.248;-0.546;2024-01-06T13:32:12;101104;;;6.32;100.00
62632;BME280;48703;51.248;-0.546;2024-01-06T13:35:15;101106;;;6.31;100.00
62632;BME280;48703;51.248;-0.546;2024-01-06T13:38:17;101108;;;6.28;100.00
62632;BME280;48703;51.248;-0.546;2024-01-06T13:41:19;101108;;;6.29;100.00
62632;BME280;48703;51.248;-0.546;2024-01-06T13:44:22;101111;;;6.30;100.00
62632;BME280;48703;51.248;-0.546;2024-01-06T13:47:24;101112;;;6.31;100.00
62632;BME280;48703;51.248;-0.546;2024-01-06T13:50:26;101114;;;6.28;100.00
62632;BME280;48703;51.248;-0.546;2024-01-06T13:53:28;101113;;;6.28;100.00
62632;BME280;48703;51.248;-0.546;2024-01-06T13:56:31;101115;;;6.28;100.00
62632;BME280;48703;51.248;-0.546;2024-01-06T13:59:33;101117;;;6.30;100.00
62632;BME280;48703;51.248;-0.546;2024-01-06T14:02:35;101117;;;6.27;100.00
62632;BME280;48703;51.248;-0.546;2024-01-06T14:05:37;101124;;;6.28;100.00
62632;BME280;48703;51.248;-0.546;2024-01-06T14:08:40;101126;;;6.23;99.66
62632;BME280;48703;51.248;-0.546;2024-01-06T14:11:42;101126;;;6.22;100.00
62632;BME280;48703;51.248;-0.546;2024-01-06T14:14:44;101128;;;6.21;99.80
62632;BME280;48703;51.248;-0.546;2024-01-06T14:17:47;101131;;;6.21;99.96
62632;BME280;48703;51.248;-0.546;2024-01-06T14:20:49;101133;;;6.23;100.00
62632;BME280;48703;51.248;-0.546;2024-01-06T14:23:51;101135;;;6.24;100.00
62632;BME280;48703;51.248;-0.546;2024-01-06T14:26:53;101134;;;6.22;99.84
62632;BME280;48703;51.248;-0.546;2024-01-06T14:29:56;101137;;;6.22;99.95
62632;BME280;48703;51.248;-0.546;2024-01-06T14:32:59;101141;;;6.24;100.00
62632;BME280;48703;51.248;-0.546;2024-01-06T14:36:00;101142;;;6.23;100.00
62632;BME280;48703;51.248;-0.546;2024-01-06T14:39:03;101143;;;6.23;100.00
62632;BME280;48703;51.248;-0.546;2024-01-06T14:42:05;101149;;;6.23;100.00
62632;BME280;48703;51.248;-0.546;2024-01-06T14:45:09;101154;;;6.21;100.00
62632;BME280;48703;51.248;-0.546;2024-01-06T14:48:09;101162;;;6.19;100.00
62632;BME280;48703;51.248;-0.546;2024-01-06T14:51:12;101166;;;6.19;100.00
62632;BME280;48703;51.248;-0.546;2024-01-06T14:54:14;101169;;;6.17;100.00
62632;BME280;48703;51.248;-0.546;2024-01-06T14:57:16;101168;;;6.15;100.00
62632;BME280;48703;51.248;-0.546;2024-01-06T15:00:19;101173;;;6.13;100.00
62632;BME280;48703;51.248;-0.546;2024-01-06T15:03:21;101176;;;6.10;100.00
62632;BME280;48703;51.248;-0.546;2024-01-06T15:06:23;101179;;;6.06;100.00
62632;BME280;48703;51.248;-0.546;2024-01-06T15:09:25;101181;;;6.03;100.00
62632;BME280;48703;51.248;-0.546;2024-01-06T15:12:27;101184;;;6.02;100.00
62632;BME280;48703;51.248;-0.546;2024-01-06T15:15:30;101190;;;5.98;100.00
62632;BME280;48703;51.248;-0.546;2024-01-06T15:18:32;101191;;;5.96;100.00
62632;BME280;48703;51.248;-0.546;2024-01-06T15:21:34;101194;;;5.95;100.00
62632;BME280;48703;51.248;-0.546;2024-01-06T15:24:36;101197;;;5.93;100.00
62632;BME280;48703;51.248;-0.546;2024-01-06T15:27:39;101198;;;5.92;100.00
62632;BME280;48703;51.248;-0.546;2024-01-06T15:30:41;101202;;;5.90;100.00
62632;BME280;48703;51.248;-0.546;2024-01-06T15:33:44;101204;;;5.90;100.00
62632;BME280;48703;51.248;-0.546;2024-01-06T15:36:46;101205;;;5.86;100.00
62632;BME280;48703;51.248;-0.546;2024-01-06T15:39:48;101206;;;5.85;100.00
62632;BME280;48703;51.248;-0.546;2024-01-06T15:42:50;101212;;;5.84;100.00
62632;BME280;48703;51.248;-0.546;2024-01-06T15:45:53;101211;;;5.83;100.00
62632;BME280;48703;51.248;-0.546;2024-01-06T15:48:55;101219;;;5.81;100.00
62632;BME280;48703;51.248;-0.546;2024-01-06T15:51:57;101221;;;5.79;100.00
62632;BME280;48703;51.248;-0.546;2024-01-06T15:54:59;101227;;;5.75;100.00
62632;BME280;48703;51.248;-0.546;2024-01-06T15:58:02;101232;;;5.73;100.00
62632;BME280;48703;51.248;-0.546;2024-01-06T16:01:04;101236;;;5.67;100.00
62632;BME280;48703;51.248;-0.546;2024-01-06T16:04:06;101237;;;5.67;100.00
62632;BME280;48703;51.248;-0.546;2024-01-06T16:07:08;101241;;;5.67;100.00
62632;BME280;48703;51.248;-0.546;2024-01-06T16:10:11;101248;;;5.63;100.00
62632;BME280;48703;51.248;-0.546;2024-01-06T16:13:13;101253;;;5.60;100.00
62632;BME280;48703;51.248;-0.546;2024-01-06T16:16:15;101260;;;5.56;100.00